SCIE/CCP METAR and TAF weather

Enter ICAO airport designator
Station Type Date Time Source
SCIE METAR 2019/10/20 18:00 UTC NOAA

SCIE 201800Z 29011KT 270V340 9999 SCT025 SCT040 15/09 Q1026


Station Type Date Time Source
SCIE Decoded METAR 2019/10/20 18:00 UTC NOAA

Concepcion, Chile (SCIE) 36-46S 073-03W
Oct 20, 2019 - 02:00 PM EDT / 2019.10.20 1800 UTC
Wind: from the WNW (290 degrees) at 13 MPH (11 KT) (direction variable):0
Visibility: greater than 7 mile(s):0
Sky conditions: partly cloudy
Temperature: 59 F (15 C)
Dew Point: 48 F (9 C)
Relative Humidity: 67%
Pressure (altimeter): 30.30 in. Hg (1026 hPa)
ob: SCIE 201800Z 29011KT 270V340 9999 SCT025 SCT040 15/09 Q1026
cycle: 18

Station Type Date Time Source
SCIE TAF 2019/10/20 18:03 UTC NOAA

TAF TAF SCIE 201606Z 2018/2118 34008KT 9999 FEW025 SCT050 TX17/2018Z TN09/2111Z
BECMG 2103/2105 20004KT
TEMPO 2108/2114 27004KT 6000 -DZ SCT008 OVC015
BECMG 2116/2118 CAVOK

Example: see airport list